• Join FlightAware (Why Join?)
  • Login
  • US Flag 
06:49PM EDT


 

Airport Tracker/Info


-or-


 

Live Flight TrackerFlight Track Log ✈ UAL582 ✈ 10-Sep-2013 ✈ CYYZ - KORD

Flight Track Log - Related Links

Times and Time Zones

All times are in EDT time to prevent confusion due to time zone crossing. See the UAL582 flight status page for this flight to view local times or setup timezone preferences in your user account.

Time Position Orientation Groundspeed Altitude Reporting Facility
EDT Latitude Longitude Course Direction KTS MPH feet Rate Location/Type
05:25PM 43.6333 -79.6333 270° West 150 173 2,300  Level Toronto Center
05:26PM 43.5833 -79.6833 216° Southwest 200 230 4,100 1,620 Climbing Toronto Center
05:27PM 43.5833 -79.7667 270° West 250 288 5,600 1,440 Climbing Toronto Center
05:28PM 43.6000 -79.8667 283° West 250 288 7,000 1,800 Climbing Toronto Center
05:29PM 43.5733 -80.2534 253° West  Level Estimated
05:29PM 43.6333 -79.9500 299° West 250 288 9,300  Level Toronto Center
05:30PM 43.5878 -80.3795 279° West  Level FlightAware Approximate
05:30PM 43.6500 -80.0500 283° West 270 311 10,700  Level Toronto Center
05:31PM 43.5638 -80.5161 270° West  Level Estimated
05:31PM 43.6667 -80.1833 280° West 330 380 12,100  Level Toronto Center
05:32PM 43.7000 -80.3000 292° West 360 414 14,500 2,100 Climbing Toronto Center
05:33PM 43.7167 -80.4667 278° West 370 426 16,400 1,500 Climbing Toronto Center
05:34PM 43.7333 -80.6000 280° West 380 437 17,600 1,320 Climbing Toronto Center
05:35PM 43.7000 -80.7333 251° West 410 472 19,100 1,440 Climbing Toronto Center
05:36PM 43.6500 -80.9000 248° West 420 483 20,500 1,320 Climbing Toronto Center
05:37PM 43.6167 -81.0667 255° West 430 495 21,800 1,080 Climbing Toronto Center
05:38PM 43.5833 -81.2167 253° West 440 506 22,700 1,200 Climbing Toronto Center
05:39PM 43.5500 -81.3833 255° West 440 506 24,200 1,500 Climbing Toronto Center
05:40PM 43.5333 -81.5500 262° West 440 506 25,700 1,500 Climbing Toronto Center
05:41PM 43.5167 -81.7000 261° West 430 495 27,300 1,500 Climbing Toronto Center
05:42PM 43.5000 -81.8667 262° West 430 495 28,700 1,500 Climbing Toronto Center
05:43PM 43.4667 -82.0500 256° West 430 495 30,300 960 Climbing Toronto Center
05:44PM 43.4500 -82.2000 261° West 430 495 30,700 720 Climbing Toronto Center
05:46PM 43.4150 -82.3950 256° West 441 507 32,000 960 Climbing Cleveland Center
05:46PM 43.3667 -82.5000 238° Southwest 440 506 32,700 780 Climbing Toronto Center
05:47PM 43.3000 -82.6500 239° Southwest 440 506 33,400 600 Climbing Toronto Center
05:48PM 43.2500 -82.8167 248° West 450 518 34,000 300 Climbing Toronto Center
05:49PM 43.2167 -82.9667 253° West 440 506 34,000  Level Toronto Center
05:50PM 43.1667 -83.1333 248° West 440 506 34,000 -120 Level Toronto Center
05:51PM 43.1000 -83.2833 239° Southwest 450 518 33,800 -540 Descending Toronto Center
05:53PM 43.0597 -83.4703 254° West 456 525 32,800 -840 Descending Cleveland Center
05:54PM 43.0078 -83.6242 245° Southwest 456 525 32,000 -420 Descending Cleveland Center
05:55PM 42.9661 -83.7781 250° West 456 525 32,000  Level Cleveland Center
05:56PM 42.9447 -83.9444 260° West 442 509 32,000  Level Cleveland Center
05:57PM 42.9317 -84.1081 264° West 437 503 32,000  Level Cleveland Center
05:58PM 42.9139 -84.2717 262° West 437 503 32,000  Level Cleveland Center
05:58PM 42.9022 -84.4022 263° West 434 499 32,000  Level Chicago Center
05:59PM 42.8861 -84.5667 262° West 436 502 32,000  Level Chicago Center
06:00PM 42.8683 -84.7294 262° West 435 501 32,000  Level Chicago Center
06:01PM 42.8497 -84.9275 263° West 439 505 32,000  Level Chicago Center
06:02PM 42.8303 -85.0922 261° West 441 507 32,000  Level Chicago Center
06:04PM 42.8133 -85.2592 262° West 444 511 32,000 -420 Level Chicago Center
06:05PM 42.7939 -85.4239 261° West 443 510 31,200 -840 Descending Chicago Center
06:06PM 42.7711 -85.5778 259° West 419 482 30,300 -1,320 Descending Chicago Center
06:07PM 42.7442 -85.7297 256° West 412 474 28,500 -1,980 Descending Chicago Center
06:08PM 42.7169 -85.8764 256° West 401 461 26,300 -2,100 Descending Chicago Center
06:09PM 42.6872 -86.0453 257° West 383 441 24,200 -1,740 Descending Chicago Center
06:10PM 42.6625 -86.1775 256° West 363 418 22,800 -1,440 Descending Chicago Center
06:11PM 42.6397 -86.3053 256° West 350 403 21,300 -1,440 Descending Chicago Center
06:12PM 42.6158 -86.4328 256° West 348 400 19,800 -1,200 Descending Chicago Center
06:13PM 42.5933 -86.5533 256° West 333 383 18,900 -1,020 Descending Chicago Center
06:14PM 42.5722 -86.6639 255° West 309 356 17,700 -1,200 Descending Chicago Center
06:15PM 42.5492 -86.7714 254° West 300 345 16,500 -1,260 Descending Chicago Center
06:16PM 42.5131 -86.8994 249° West 302 348 15,200 -1,260 Descending Chicago Center
06:17PM 42.4844 -87.0036 250° West 298 343 14,000 -1,380 Descending Chicago Center
06:18PM 42.4578 -87.1031 250° West 288 331 12,400 -1,560 Descending Chicago Center
06:19PM 42.4308 -87.2014 250° West 280 322 10,800 -1,440 Descending Chicago Center
06:20PM 42.3828 -87.2714 227° Southwest 276 318 9,500 -900 Descending Chicago Center
06:21PM 42.2897 -87.2531 172° South 285 328 9,000 -660 Descending Chicago Center
06:22PM 42.2114 -87.2331 169° South 285 328 8,200 -900 Descending Chicago Center
06:23PM 42.1364 -87.2139 169° South 278 320 7,200 -600 Descending Chicago Center
06:24PM 42.0636 -87.1967 170° South 270 311 7,000 -120 Descending Chicago Center
06:25PM 42.0022 -87.1825 170° South 232 267 7,000  Level Chicago Center
06:26PM 41.9853 -87.2719 256° West 210 242 7,000  Level Chicago Center
06:27PM 41.9839 -87.3494 269° West 210 242 7,000  Level Chicago Center
06:28PM 41.9836 -87.4283 270° West 211 243 7,000 -300 Level Chicago Center
06:29PM 41.9842 -87.4994 271° West 196 226 6,500 -960 Descending Chicago Center
06:30PM 41.9842 -87.5631 270° West 176 203 5,100 -1,140 Descending Chicago Center
06:31PM 41.9844 -87.6397 270° West 176 203 4,200 -960 Descending Chicago Center
06:32PM 41.9833 -87.7025 269° West 172 198 3,200 -960 Descending Chicago Center
06:34PM 41.9836 -87.7664 270° West 171 197 2,300 -780 Descending Chicago Center
06:35PM 41.9844 -87.8306 271° West 172 198 1,600 -540 Descending Chicago Center
06:36PM 41.9856 -87.8989 271° West 170 196 1,200 -420 Descending Chicago Center